Elbert, Colorado
Current Conditions -  °F | °C
As of 2:32 AM on Friday 31 Oct 2014 (Local Time) from KMNH Reporting Station
Clear Clear  
Wind Chill: -3°   Ceiling: Unl
Heat Index:   Visibility: 10mi
Dew Point: -5°   Wind: 14mph
Humidity: 60%   Direction: 170°S
Pressure: 30.4"   Gusts: NA
Location:  39.22°N, 104.54°W
Report Text: KMNH 310832Z AUTO 17012KT 10SM CLR 02/M05 A3040 RMK AO2
Loading
Personal Weather Stations






























Interactive Weather Map
Tropical Storm Tracking
New forecast layout! Learn more

10-Day Weather Forecast

Advertisements
Track Severe Weather on mobile